AIRPORT_AIRPORT_METAR
METAR FOR ESKS
ADDS - METARS form results

(2359 UTC 16 April 2021)
Data provider http://aviationweather.gov/metar/data/
 
METAR text: ESKS 162350Z AUTO 04006KT 9999 NCD M01/M04 Q1032
Conditions at: ESKS (SALEN/SCANDANAVI, SW) observed 2350 UTC 16 April 2021
Temperature: -1.0°C (30°F)
Dewpoint: -4.0°C (25°F) [RH = 80%]
Pressure (altimeter): 30.47 inches Hg (1032.0 mb)
Winds: from the NE (40 degrees) at 7 MPH (6 knots; 3.1 m/s)
Visibility: 6 or more miles (10+ km)
Ceiling: at least 12,000 feet AGL
Clouds: sky clear below 12,000 feet AGL
Weather: no significant weather observed at this time

METAR text: ESKS 162320Z AUTO 05004KT 9999 NCD 01/M04 Q1032
Conditions at: ESKS (SALEN/SCANDANAVI, SW) observed 2320 UTC 16 April 2021
Temperature: 1.0°C (34°F)
Dewpoint: -4.0°C (25°F) [RH = 69%]
Pressure (altimeter): 30.47 inches Hg (1032.0 mb)
Winds: from the NE (50 degrees) at 5 MPH (4 knots; 2.1 m/s)
Visibility: 6 or more miles (10+ km)
Ceiling: at least 12,000 feet AGL
Clouds: sky clear below 12,000 feet AGL
Weather: no significant weather observed at this time

 AIRPORT_AIRPORT_MAP

 AIRPORT_RUNWAY_INFO

 AIRPORT_AIRPORT_FREQUENCIES

 AIRPORT_AIRPORT_NAVAIDS



Copyright © 2005-2020 - Virtuel Air Alsace - Tous droits réservés